Time;durP1;ratioP1;P1;durP2;ratioP2;P2;SDS_P1;SDS_P2;PMS_P1;PMS_P2;Temp;Humidity;BMP_temperature;BMP_pressure;BME280_temperature;BME280_humidity;BME280_pressure;Samples;Min_cycle;Max_cycle;Signal;HPM_P1;HPM_P2
2022/11/21 00:02:23;;;;;;;14.65;4.32;;;;;;;13.74;78.97;98217.91;5067478;28;20024;-90
2022/11/21 00:04:48;;;;;;;8.32;3.78;;;;;;;13.82;78.82;98211.72;5069862;28;20486;-90
2022/11/21 00:07:14;;;;;;;17.85;4.78;;;;;;;13.90;79.01;98227.16;5052233;28;20137;-90
2022/11/21 00:09:39;;;;;;;8.07;4.38;;;;;;;13.89;78.41;98217.44;5068365;28;20028;-90
2022/11/21 00:12:05;;;;;;;10.10;3.60;;;;;;;14.02;78.01;98214.88;5045178;28;20029;-90
2022/11/21 00:14:32;;;;;;;16.35;4.10;;;;;;;14.18;77.20;98226.81;5066939;28;20475;-90
2022/11/21 00:16:57;;;;;;;18.55;4.13;;;;;;;14.32;76.47;98224.72;5048991;28;20094;-90
2022/11/21 00:19:23;;;;;;;8.35;2.92;;;;;;;14.37;75.37;98201.31;5061870;28;20032;-89
2022/11/21 00:21:48;;;;;;;16.77;3.58;;;;;;;14.53;75.27;98215.94;5065403;28;20032;-89
2022/11/21 00:24:14;;;;;;;12.60;3.25;;;;;;;14.49;75.46;98202.22;5050940;28;20020;-90
2022/11/21 00:26:39;;;;;;;9.27;3.58;;;;;;;14.53;75.34;98205.09;5065615;28;20135;-89
2022/11/21 00:29:05;;;;;;;14.20;3.00;;;;;;;14.55;75.25;98197.44;5076222;28;20035;-90
2022/11/21 00:31:30;;;;;;;12.82;3.55;;;;;;;14.63;74.74;98193.94;5066273;28;20031;-89
2022/11/21 00:33:55;;;;;;;10.90;3.42;;;;;;;14.65;75.10;98204.41;5062733;28;20467;-90
2022/11/21 00:36:21;;;;;;;10.80;3.45;;;;;;;14.65;74.87;98191.69;5055540;28;20497;-89
2022/11/21 00:38:47;;;;;;;6.32;3.70;;;;;;;14.62;74.85;98170.66;5059342;28;20457;-90
2022/11/21 00:41:12;;;;;;;13.65;3.10;;;;;;;14.74;75.13;98194.38;5045878;28;20036;-90
2022/11/21 00:43:38;;;;;;;8.40;2.80;;;;;;;14.70;75.44;98191.50;5071922;28;20028;-89
2022/11/21 00:46:03;;;;;;;15.27;3.85;;;;;;;14.66;75.18;98187.84;5062197;28;20059;-90
2022/11/21 00:48:29;;;;;;;10.57;2.95;;;;;;;14.65;74.96;98188.16;5064969;28;20074;-89
2022/11/21 00:50:55;;;;;;;15.52;3.72;;;;;;;14.73;74.98;98196.28;5069372;28;20103;-90
2022/11/21 00:53:20;;;;;;;19.70;3.65;;;;;;;14.77;74.87;98192.91;5069633;28;20638;-89
2022/11/21 00:55:46;;;;;;;9.80;3.30;;;;;;;14.84;75.11;98187.81;5055581;28;20059;-90
2022/11/21 00:58:11;;;;;;;9.85;3.83;;;;;;;14.83;74.84;98165.31;5052481;28;20031;-89
2022/11/21 01:00:36;;;;;;;16.95;3.80;;;;;;;14.82;74.67;98155.59;5041681;28;20082;-90
2022/11/21 01:03:02;;;;;;;14.45;3.90;;;;;;;14.83;74.82;98164.50;5070315;28;20035;-90
2022/11/21 01:05:27;;;;;;;12.90;4.40;;;;;;;14.86;74.87;98170.09;5051121;28;20025;-90
2022/11/21 01:07:53;;;;;;;13.45;4.38;;;;;;;14.79;74.71;98158.94;5044016;28;20028;-89
2022/11/21 01:10:18;;;;;;;13.82;4.35;;;;;;;14.79;74.75;98144.59;5062743;28;20039;-89
2022/11/21 01:12:44;;;;;;;12.50;3.47;;;;;;;14.78;74.88;98129.47;5051090;28;20032;-90
2022/11/21 01:15:09;;;;;;;11.85;3.45;;;;;;;14.82;74.82;98128.50;5057664;28;20388;-90
2022/11/21 01:17:35;;;;;;;20.52;4.20;;;;;;;14.75;74.48;98090.25;5079334;28;20024;-90
2022/11/21 01:20:00;;;;;;;11.27;3.78;;;;;;;14.78;74.28;98096.97;5070996;28;20024;-90
2022/11/21 01:22:26;;;;;;;18.52;4.10;;;;;;;14.80;74.93;98100.16;5044104;28;20094;-90
2022/11/21 01:24:51;;;;;;;16.05;4.05;;;;;;;14.72;74.95;98089.00;5040833;28;20029;-90
2022/11/21 01:27:17;;;;;;;12.05;3.83;;;;;;;14.69;75.01;98088.88;5066661;28;20028;-89
2022/11/21 01:29:42;;;;;;;11.25;3.92;;;;;;;14.66;75.22;98087.59;5050292;28;20024;-87
2022/11/21 01:32:08;;;;;;;15.43;3.72;;;;;;;14.58;75.42;98085.75;5050018;28;20028;-90
2022/11/21 01:34:33;;;;;;;11.93;3.80;;;;;;;14.65;74.77;98087.94;5060364;28;20039;-90
2022/11/21 01:37:00;;;;;;;11.98;3.85;;;;;;;14.54;74.05;98050.34;5055779;28;20039;-90
2022/11/21 01:39:25;;;;;;;10.93;3.92;;;;;;;14.63;74.16;98047.66;5060275;28;20553;-90
2022/11/21 01:41:51;;;;;;;17.73;3.85;;;;;;;14.68;74.46;98062.91;5064968;28;20039;-90
2022/11/21 01:44:21;;;;;;;10.27;3.53;;;;;;;14.70;74.87;98060.66;5075899;28;20024;-90
2022/11/21 01:46:47;;;;;;;10.15;4.00;;;;;;;14.63;74.53;98052.25;5043096;28;20403;-90
2022/11/21 01:49:16;;;;;;;13.80;3.72;;;;;;;14.71;75.28;98037.84;5063207;28;20024;-90
2022/11/21 01:52:04;;;;;;;15.55;4.28;;;;;;;14.66;75.11;98049.69;5085196;28;20027;-90
2022/11/21 01:54:36;;;;;;;16.52;4.43;;;;;;;14.64;75.23;98029.47;5063108;28;20039;-90
2022/11/21 01:57:23;;;;;;;17.52;4.55;;;;;;;14.54;75.06;98017.84;5061943;28;20142;-91
2022/11/21 01:59:53;;;;;;;17.63;4.07;;;;;;;14.45;74.29;98022.53;5065326;28;20108;-91
2022/11/21 02:02:20;;;;;;;13.70;3.45;;;;;;;14.47;73.64;97995.91;5061182;28;20067;-92
2022/11/21 02:04:46;;;;;;;10.88;3.63;;;;;;;14.53;73.70;97999.22;5049599;28;20506;-91
2022/11/21 02:07:12;;;;;;;10.73;3.38;;;;;;;14.66;73.16;98011.75;5075097;28;20131;-91
2022/11/21 02:09:38;;;;;;;11.65;4.03;;;;;;;14.64;73.00;97992.31;5048791;28;20032;-90
2022/11/21 02:12:10;;;;;;;19.13;4.20;;;;;;;14.78;73.17;97988.59;5049150;28;20024;-91
2022/11/21 02:14:36;;;;;;;16.20;3.53;;;;;;;14.86;72.91;97985.81;5059345;28;20071;-90
2022/11/21 02:17:04;;;;;;;12.02;3.70;;;;;;;14.90;72.30;97980.50;5052750;28;20061;-91
2022/11/21 02:19:51;;;;;;;14.60;3.25;;;;;;;15.09;72.08;97993.59;5046601;28;20029;-91
2022/11/21 02:22:23;;;;;;;11.43;3.85;;;;;;;15.08;70.90;97994.72;5053087;28;20027;-91
2022/11/21 02:25:14;;;;;;;12.77;3.67;;;;;;;15.33;71.05;98014.59;5066976;28;20027;-90
2022/11/21 02:27:39;;;;;;;25.52;4.53;;;;;;;15.51;70.79;98009.78;5084211;28;20405;-90
2022/11/21 02:30:06;;;;;;;12.38;4.15;;;;;;;15.44;71.01;97991.34;5077269;28;20062;-90
2022/11/21 02:32:48;;;;;;;16.80;3.30;;;;;;;15.44;71.84;97976.97;5049318;28;20059;-90
2022/11/21 02:35:17;;;;;;;15.68;3.45;;;;;;;15.50;72.20;97976.47;5043277;28;20040;-90
2022/11/21 02:37:44;;;;;;;10.15;2.70;;;;;;;15.50;72.51;97976.47;5065955;28;20036;-91
2022/11/21 02:40:13;;;;;;;13.95;3.42;;;;;;;15.46;72.80;97986.38;5064944;28;20398;-91
2022/11/21 02:42:42;;;;;;;10.48;2.75;;;;;;;15.33;72.49;97971.19;5047261;28;20027;-90
2022/11/21 02:45:30;;;;;;;20.35;3.17;;;;;;;15.46;72.31;97975.53;5050735;28;20030;-90
2022/11/21 02:47:56;;;;;;;12.55;3.05;;;;;;;15.49;71.57;97977.56;5056556;28;20032;-90
2022/11/21 02:50:24;;;;;;;10.70;2.65;;;;;;;15.48;70.88;97991.47;5071599;28;20084;-90
2022/11/21 02:52:49;;;;;;;14.75;3.28;;;;;;;15.32;71.72;97985.88;5050285;28;20089;-91
2022/11/21 02:55:15;;;;;;;10.82;2.83;;;;;;;15.35;71.62;97994.13;5058254;28;20520;-90
2022/11/21 02:57:40;;;;;;;9.85;2.97;;;;;;;15.37;71.06;97993.81;5061184;28;20035;-90
2022/11/21 03:00:07;;;;;;;7.60;2.70;;;;;;;15.30;70.92;97977.28;5059276;28;20101;-91
2022/11/21 03:02:32;;;;;;;9.70;2.75;;;;;;;15.29;69.15;97951.28;5067971;28;20422;-90
2022/11/21 03:04:58;;;;;;;8.52;2.60;;;;;;;15.31;70.47;97949.03;5044595;28;20017;-91
2022/11/21 03:07:23;;;;;;;6.65;2.92;;;;;;;15.29;70.34;97933.13;5041331;28;20090;-90
2022/11/21 03:09:49;;;;;;;5.75;2.28;;;;;;;15.22;68.07;97922.00;5042782;28;20025;-90
2022/11/21 03:12:14;;;;;;;5.90;2.38;;;;;;;15.23;68.89;97928.22;5063135;28;20125;-90
2022/11/21 03:14:40;;;;;;;8.93;2.88;;;;;;;15.11;68.57;97910.00;5045893;28;20040;-90
2022/11/21 03:17:05;;;;;;;11.32;3.10;;;;;;;15.15;69.17;97941.53;5045361;28;20085;-91
2022/11/21 03:19:31;;;;;;;7.90;2.20;;;;;;;15.05;68.69;97939.25;5038241;28;20044;-91
2022/11/21 03:21:56;;;;;;;4.60;2.33;;;;;;;15.06;67.91;97950.88;5046124;28;20036;-91
2022/11/21 03:24:21;;;;;;;8.65;2.90;;;;;;;15.06;67.26;97967.13;5053777;28;20031;-88
2022/11/21 03:26:47;;;;;;;11.45;2.30;;;;;;;15.09;67.03;97983.53;5040801;28;20032;-90
2022/11/21 03:29:12;;;;;;;6.45;2.10;;;;;;;15.09;67.15;97983.53;5062679;28;20522;-90
2022/11/21 03:31:38;;;;;;;5.38;2.50;;;;;;;15.06;66.35;97991.53;5060769;28;20466;-90
2022/11/21 03:34:03;;;;;;;4.30;1.60;;;;;;;15.03;66.69;98001.13;5073072;28;20432;-90
2022/11/21 03:36:29;;;;;;;5.72;1.70;;;;;;;14.97;66.18;97994.31;5040550;28;20047;-90
2022/11/21 03:38:56;;;;;;;1.95;1.30;;;;;;;14.97;66.35;97993.53;5055580;28;20105;-90
2022/11/21 03:41:31;;;;;;;2.85;0.95;;;;;;;14.93;67.01;97987.97;5047028;28;20028;-91
2022/11/21 03:43:57;;;;;;;6.65;1.42;;;;;;;14.94;67.85;97984.94;5066904;28;20055;-89
2022/11/21 03:46:23;;;;;;;5.88;1.27;;;;;;;14.83;68.48;97972.13;5064904;28;20035;-90
2022/11/21 03:48:48;;;;;;;4.57;1.38;;;;;;;14.77;69.14;97973.44;5047289;28;20025;-91
2022/11/21 03:51:14;;;;;;;2.78;1.30;;;;;;;14.76;69.36;97986.19;5047502;28;20020;-90
2022/11/21 03:53:39;;;;;;;5.72;1.60;;;;;;;14.62;69.72;97966.69;5063205;28;20047;-90
2022/11/21 03:56:05;;;;;;;5.15;1.70;;;;;;;14.59;70.75;97968.16;5045367;28;20041;-91
2022/11/21 03:58:30;;;;;;;7.28;1.80;;;;;;;14.44;71.04;97961.34;5070038;28;20111;-91
2022/11/21 04:00:56;;;;;;;5.20;2.13;;;;;;;14.13;71.06;97957.09;5073739;28;20389;-91
2022/11/21 04:03:21;;;;;;;6.85;2.60;;;;;;;14.06;71.54;97964.91;5073855;28;20028;-90
2022/11/21 04:05:47;;;;;;;4.65;2.10;;;;;;;13.87;72.27;97972.66;5063858;28;20020;-90
2022/11/21 04:08:12;;;;;;;9.00;2.65;;;;;;;13.59;72.88;97959.50;5058338;28;20028;-90
2022/11/21 04:10:37;;;;;;;8.23;3.05;;;;;;;13.39;73.75;97961.03;5041916;28;20067;-90
2022/11/21 04:13:03;;;;;;;5.82;2.72;;;;;;;13.26;74.25;97954.66;5068930;28;20025;-90
2022/11/21 04:15:28;;;;;;;4.82;2.00;;;;;;;13.00;75.07;97940.38;5067963;28;20077;-90
2022/11/21 04:17:54;;;;;;;7.68;2.30;;;;;;;12.94;75.60;97937.03;5075311;28;20039;-91
2022/11/21 04:20:19;;;;;;;8.20;2.38;;;;;;;12.85;76.44;97934.34;5053193;28;20028;-89
2022/11/21 04:22:45;;;;;;;6.70;2.72;;;;;;;12.83;76.04;97949.31;5067330;28;20029;-90
2022/11/21 04:25:12;;;;;;;5.35;2.17;;;;;;;12.89;76.19;97959.63;5069471;28;20028;-90
2022/11/21 04:27:38;;;;;;;8.15;2.55;;;;;;;12.82;76.02;97940.38;5070011;28;20047;-90
2022/11/21 04:30:04;;;;;;;6.65;2.60;;;;;;;12.67;76.62;97930.06;5070172;28;20183;-90
2022/11/21 04:32:29;;;;;;;6.47;2.83;;;;;;;12.65;76.82;97937.69;5064769;28;20071;-90
2022/11/21 04:34:55;;;;;;;6.95;2.83;;;;;;;12.61;77.43;97934.03;5053882;28;20024;-90
2022/11/21 04:37:20;;;;;;;9.57;2.58;;;;;;;12.54;77.31;97904.81;5076730;28;20081;-90
2022/11/21 04:39:46;;;;;;;7.35;3.03;;;;;;;12.57;76.64;97917.66;5076560;28;20016;-90
2022/11/21 04:42:11;;;;;;;5.63;3.13;;;;;;;12.42;78.03;97929.72;5076486;28;20031;-90
2022/11/21 04:44:37;;;;;;;8.43;3.15;;;;;;;12.30;78.80;97918.75;5077233;28;20012;-90
2022/11/21 04:47:02;;;;;;;5.70;2.55;;;;;;;12.28;78.44;97920.97;5058258;28;20024;-89
2022/11/21 04:49:28;;;;;;;6.20;3.20;;;;;;;12.25;78.47;97930.50;5086969;28;20040;-91
2022/11/21 04:51:54;;;;;;;4.65;3.60;;;;;;;12.26;78.95;97931.28;5055841;28;20028;-90
2022/11/21 04:54:20;;;;;;;13.38;4.10;;;;;;;12.16;79.33;97931.59;5060226;28;20610;-91
2022/11/21 04:56:45;;;;;;;7.10;4.20;;;;;;;12.13;78.87;97933.00;5046507;28;20032;-90
2022/11/21 04:59:11;;;;;;;21.75;11.73;;;;;;;12.28;79.31;97967.63;5064359;28;20063;-89
2022/11/21 05:01:37;;;;;;;9.93;4.22;;;;;;;12.05;79.76;97947.28;5074508;28;20042;-90
2022/11/21 05:04:02;;;;;;;12.85;5.72;;;;;;;12.09;79.32;97951.72;5073131;28;20025;-90
2022/11/21 05:06:28;;;;;;;9.70;6.20;;;;;;;12.11;78.83;97956.81;5043985;28;20491;-89
2022/11/21 05:09:05;;;;;;;12.15;4.25;;;;;;;12.05;78.90;97947.28;5042984;28;20492;-89
2022/11/21 05:14:14;;;;;;;7.85;3.90;;;;;;;12.09;79.06;97934.75;5062053;28;20031;-90
2022/11/21 05:16:43;;;;;;;7.43;3.67;;;;;;;11.99;79.17;97905.38;5062240;28;20027;-90
2022/11/21 05:19:08;;;;;;;13.10;7.30;;;;;;;11.98;79.64;97915.38;5048216;28;20028;-91
2022/11/21 05:21:34;;;;;;;9.85;5.35;;;;;;;11.99;79.39;97919.63;5053224;28;20039;-90
2022/11/21 05:23:59;;;;;;;7.05;4.07;;;;;;;12.07;78.34;97928.88;5075397;28;20020;-90
2022/11/21 05:26:25;;;;;;;6.13;3.20;;;;;;;12.09;77.92;97911.25;5059375;28;20067;-90
2022/11/21 05:28:50;;;;;;;8.40;4.07;;;;;;;12.12;77.71;97907.16;5058945;28;20494;-91
2022/11/21 05:31:16;;;;;;;7.30;3.22;;;;;;;12.09;77.93;97896.97;5059215;28;20028;-90
2022/11/21 05:33:41;;;;;;;6.18;3.30;;;;;;;12.16;77.57;97900.03;5076020;28;20077;-89
2022/11/21 05:36:10;;;;;;;15.52;6.05;;;;;;;12.36;76.95;97908.59;5075449;28;20023;-93
2022/11/21 05:38:35;;;;;;;17.00;6.90;;;;;;;12.37;76.51;97900.19;5059499;28;20036;-88
2022/11/21 05:41:01;;;;;;;12.65;5.45;;;;;;;12.34;77.00;97887.31;5059085;28;20485;-89
2022/11/21 05:43:44;;;;;;;8.32;4.60;;;;;;;12.43;76.80;97903.53;5058794;28;20031;-91
2022/11/21 05:46:10;;;;;;;8.70;3.47;;;;;;;12.53;76.40;97901.31;5064903;28;20440;-92
2022/11/21 05:48:35;;;;;;;23.58;11.88;;;;;;;12.48;78.10;97916.88;5070221;28;20172;-91
2022/11/21 05:51:04;;;;;;;14.60;7.85;;;;;;;12.40;78.14;97917.66;5047041;28;20479;-90
2022/11/21 05:53:30;;;;;;;14.85;6.70;;;;;;;12.38;77.79;97909.88;5046924;28;20033;-91
2022/11/21 05:56:09;;;;;;;14.65;8.50;;;;;;;12.52;77.43;97918.63;5065181;28;20422;-93
2022/11/21 05:58:35;;;;;;;12.13;6.70;;;;;;;12.58;76.45;97915.78;5060095;28;20036;-94
2022/11/21 06:01:01;;;;;;;15.15;6.70;;;;;;;12.60;76.82;97913.56;5041953;28;20036;-93
2022/11/21 06:03:29;;;;;;;13.07;6.53;;;;;;;12.67;76.51;97922.75;5040480;28;20501;-94
2022/11/21 06:06:05;;;;;;;13.98;6.03;;;;;;;12.80;76.40;97931.00;5057517;28;20074;-93
2022/11/21 06:08:35;;;;;;;13.85;8.40;;;;;;;12.80;76.60;97925.59;5041470;28;20031;-94
2022/11/21 06:11:01;;;;;;;12.05;5.97;;;;;;;12.80;76.17;97923.69;5040818;28;20050;-94
2022/11/21 06:13:26;;;;;;;12.73;5.18;;;;;;;12.90;75.48;97931.47;5064017;28;20103;-96
2022/11/21 06:16:02;;;;;;;12.60;5.95;;;;;;;13.12;75.23;97962.94;5046888;28;20474;-95
2022/11/21 06:18:29;;;;;;;14.50;6.88;;;;;;;13.13;75.90;97944.81;5064043;28;20028;-93
2022/11/21 06:21:00;;;;;;;10.82;6.93;;;;;;;13.12;75.73;97945.94;5068354;28;20088;-93
2022/11/21 06:23:26;;;;;;;18.45;7.53;;;;;;;13.23;76.33;97941.78;5045547;28;20501;-91
2022/11/21 06:25:58;;;;;;;11.73;7.97;;;;;;;13.03;77.30;97959.47;5060151;28;20024;-94
2022/11/21 06:28:25;;;;;;;17.50;8.82;;;;;;;13.29;76.24;97967.56;5047038;28;20049;-92
2022/11/21 06:30:50;;;;;;;13.38;7.60;;;;;;;13.36;75.94;97953.53;5039027;28;20461;-92
2022/11/21 06:33:17;;;;;;;13.02;7.55;;;;;;;13.48;75.88;97964.47;5063021;28;20032;-91
2022/11/21 06:35:45;;;;;;;15.10;8.65;;;;;;;13.37;76.45;97940.84;5067627;28;20039;-96
2022/11/21 06:38:12;;;;;;;15.90;8.63;;;;;;;13.44;76.34;97951.94;5042626;28;20058;-95
2022/11/21 06:40:38;;;;;;;14.52;8.95;;;;;;;13.54;75.74;97971.31;5074053;28;20479;-94
2022/11/21 06:43:04;;;;;;;18.35;7.85;;;;;;;13.65;75.26;97960.16;5059163;28;20028;-92
2022/11/21 06:45:29;;;;;;;26.45;15.63;;;;;;;13.68;74.45;97946.00;5060334;28;20016;-93
2022/11/21 06:47:55;;;;;;;7.82;5.68;;;;;;;13.77;72.25;97952.16;5043512;28;20051;-93
2022/11/21 06:50:21;;;;;;;9.65;4.05;;;;;;;13.80;70.73;97953.41;5028504;28;20032;-93
2022/11/21 06:52:47;;;;;;;17.08;6.18;;;;;;;14.02;69.74;97974.81;5071206;28;20059;-94
2022/11/21 06:55:28;;;;;;;;;;;;;;;;;;;;;
2022/11/21 06:57:58;;;;;;;17.13;9.50;;;;;;;14.18;68.18;97961.50;5077671;28;20028;-93
2022/11/21 07:00:27;;;;;;;10.65;4.32;;;;;;;14.29;68.00;97968.13;5077108;28;20407;-95
2022/11/21 07:02:53;;;;;;;6.47;2.88;;;;;;;14.38;67.86;97978.13;5059582;28;20115;-95
2022/11/21 07:05:22;;;;;;;22.63;14.65;;;;;;;14.45;67.54;97970.28;5075529;28;20024;-93
2022/11/21 07:07:48;;;;;;;8.65;3.80;;;;;;;14.58;65.94;97976.59;5076353;28;20459;-92
2022/11/21 07:10:13;;;;;;;3.90;2.22;;;;;;;14.71;63.70;97979.06;5059822;28;20035;-92
2022/11/21 07:15:23;;;;;;;4.80;2.70;;;;;;;15.00;62.79;97988.22;5080299;28;20035;-95
2022/11/21 07:17:48;;;;;;;6.65;2.70;;;;;;;14.85;62.44;97984.19;5062788;28;20024;-92
2022/11/21 07:20:14;;;;;;;5.93;2.83;;;;;;;15.01;63.35;97999.88;5080224;28;20031;-94
2022/11/21 07:22:40;;;;;;;5.53;2.35;;;;;;;14.66;64.62;97981.94;5080886;28;20028;-93
2022/11/21 07:25:05;;;;;;;7.85;2.28;;;;;;;14.44;65.42;98001.97;5080031;28;20027;-94
2022/11/21 07:27:31;;;;;;;6.57;2.15;;;;;;;14.10;66.12;98006.44;5062518;28;20516;-93
2022/11/21 07:29:57;;;;;;;4.38;2.08;;;;;;;13.94;67.04;98018.94;5064290;28;20028;-92
2022/11/21 07:32:28;;;;;;;3.55;1.70;;;;;;;13.77;68.74;98038.72;5063713;28;20468;-95
2022/11/21 07:34:55;;;;;;;4.63;2.28;;;;;;;13.59;69.60;98067.69;5065785;28;20020;-96
2022/11/21 07:37:21;;;;;;;2.97;1.58;;;;;;;13.24;71.17;98056.91;5084908;28;20031;-95
2022/11/21 07:40:16;;;;;;;2.70;1.67;;;;;;;13.12;72.06;98086.47;5075711;28;20031;-96
2022/11/21 07:42:47;;;;;;;2.10;1.73;;;;;;;12.76;73.38;98074.00;5092817;28;20039;-96
2022/11/21 07:45:16;;;;;;;2.90;1.83;;;;;;;12.78;73.57;98087.19;5070900;28;20126;-96
2022/11/21 07:47:47;;;;;;;5.03;2.08;;;;;;;12.65;74.00;98097.00;5086749;28;20024;-94
2022/11/21 07:50:16;;;;;;;4.97;3.10;;;;;;;12.65;74.75;98114.00;5083949;28;20022;-94
2022/11/21 07:53:09;;;;;;;2.53;1.85;;;;;;;12.78;74.24;98104.19;5069789;28;20111;-96
2022/11/21 07:55:36;;;;;;;5.20;2.33;;;;;;;12.96;73.86;98115.84;5039545;28;20060;-96
2022/11/21 07:58:02;;;;;;;2.67;1.83;;;;;;;13.20;73.53;98147.03;5052936;28;20028;-96
2022/11/21 08:00:31;;;;;;;2.63;1.95;;;;;;;13.32;72.58;98142.66;5075010;28;20033;-95
2022/11/21 08:03:08;;;;;;;3.30;2.00;;;;;;;13.31;72.33;98132.94;5049340;28;20477;-96
2022/11/21 08:05:38;;;;;;;2.25;1.60;;;;;;;13.41;72.53;98137.25;5049124;28;20555;-94
2022/11/21 08:08:04;;;;;;;2.60;2.00;;;;;;;13.49;72.42;98154.59;5045617;28;20119;-94
2022/11/21 08:10:30;;;;;;;4.07;2.38;;;;;;;13.36;72.05;98131.97;5052134;28;20107;-93
2022/11/21 08:13:14;;;;;;;2.92;2.30;;;;;;;13.46;72.18;98164.09;5047915;28;20048;-96
2022/11/21 08:15:46;;;;;;;3.33;1.80;;;;;;;13.59;72.35;98170.47;5092176;28;20054;-96
2022/11/21 08:18:18;;;;;;;4.50;1.83;;;;;;;13.58;71.64;98168.09;5107345;28;20093;-96
2022/11/21 08:20:45;;;;;;;3.22;2.17;;;;;;;13.40;71.49;98178.88;5070844;28;20020;-96
2022/11/21 08:23:10;;;;;;;9.65;4.95;;;;;;;13.23;72.27;98166.13;5059861;28;20108;-94
2022/11/21 08:25:37;;;;;;;42.00;22.83;;;;;;;13.06;73.01;98169.59;5085167;28;20103;-93
2022/11/21 08:28:12;;;;;;;;;;;;;;;;;;;;;
2022/11/21 08:30:39;;;;;;;3.17;1.90;;;;;;;13.60;70.53;98182.09;5070916;28;20020;-94
2022/11/21 08:33:56;;;;;;;2.67;1.58;;;;;;;13.71;70.55;98219.31;5076181;28;20062;-93
2022/11/21 08:36:24;;;;;;;6.07;3.33;;;;;;;13.68;70.20;98184.03;5074575;28;20041;-92
2022/11/21 08:38:50;;;;;;;6.50;2.60;;;;;;;13.54;70.07;98208.50;5064036;28;20024;-93
2022/11/21 08:47:26;;;;;;;3.03;1.83;;;;;;;13.37;70.62;98219.31;5066004;28;20418;-96
2022/11/21 08:49:57;;;;;;;4.43;3.22;;;;;;;13.39;70.86;98208.97;5044156;28;20028;-94
2022/11/21 08:52:23;;;;;;;2.15;1.50;;;;;;;13.42;70.55;98238.84;5078994;28;20095;-95
2022/11/21 08:55:06;;;;;;;7.63;3.00;;;;;;;13.43;70.09;98232.34;5060810;28;20040;-96
2022/11/21 08:57:39;;;;;;;4.78;2.80;;;;;;;13.59;69.58;98240.78;5042171;28;20067;-94
2022/11/21 09:00:05;;;;;;;2.00;1.48;;;;;;;13.42;69.01;98238.84;5042594;28;20429;-95
2022/11/21 09:02:30;;;;;;;2.80;1.70;;;;;;;13.33;69.03;98233.44;5068525;28;20031;-92
2022/11/21 09:05:01;;;;;;;1.58;1.10;;;;;;;13.17;69.89;98239.56;5067413;28;20020;-92
2022/11/21 09:07:27;;;;;;;2.75;1.80;;;;;;;13.18;69.86;98241.16;5040952;28;20031;-94
2022/11/21 09:09:52;;;;;;;1.98;1.10;;;;;;;13.14;70.03;98230.19;5081630;28;20395;-96
2022/11/21 09:12:18;;;;;;;1.70;1.10;;;;;;;13.32;69.80;98236.44;5050511;28;20086;-95
2022/11/21 09:20:11;;;;;;;1.35;1.10;;;;;;;13.15;69.74;98245.28;5056431;28;20043;-93
2022/11/21 09:22:37;;;;;;;6.43;3.53;;;;;;;13.10;69.43;98278.66;5058440;28;20020;-91
2022/11/21 09:25:03;;;;;;;2.65;1.50;;;;;;;12.99;69.91;98273.81;5069309;28;20487;-93
2022/11/21 09:27:30;;;;;;;1.20;0.95;;;;;;;12.83;70.82;98278.84;5057914;28;20073;-93
2022/11/21 09:29:55;;;;;;;2.55;1.00;;;;;;;13.03;70.03;98291.84;5058096;28;20029;-94
2022/11/21 09:32:21;;;;;;;1.35;1.10;;;;;;;12.93;69.17;98292.09;5064677;28;20038;-93
2022/11/21 09:34:48;;;;;;;1.80;1.17;;;;;;;13.09;69.84;98292.47;5036335;28;20467;-94
2022/11/21 09:37:16;;;;;;;1.88;1.25;;;;;;;13.05;69.02;98291.50;5028766;28;20076;-92
2022/11/21 09:39:49;;;;;;;1.63;1.20;;;;;;;13.22;68.38;98302.41;5042876;28;20032;-92
2022/11/21 09:42:25;;;;;;;2.42;1.63;;;;;;;13.11;67.87;98301.06;5079424;28;20032;-92
2022/11/21 09:45:11;;;;;;;1.20;0.90;;;;;;;13.04;68.78;98306.91;5076793;28;20028;-90
2022/11/21 09:47:39;;;;;;;2.13;1.60;;;;;;;13.03;69.69;98302.63;5049689;28;20111;-92
2022/11/21 09:50:12;;;;;;;2.25;1.10;;;;;;;13.06;67.96;98304.69;5063203;28;20081;-92
2022/11/21 09:53:09;;;;;;;3.88;1.30;;;;;;;13.09;67.84;98323.00;5074730;28;20025;-92
2022/11/21 09:55:34;;;;;;;1.40;1.00;;;;;;;13.02;67.64;98336.16;5074908;28;20402;-92
2022/11/21 09:58:02;;;;;;;2.53;1.23;;;;;;;12.69;68.05;98320.22;5085392;28;20036;-93
2022/11/21 10:00:28;;;;;;;1.30;1.00;;;;;;;12.53;68.60;98327.09;5058187;28;20037;-94
2022/11/21 10:03:03;;;;;;;1.50;1.20;;;;;;;12.33;69.38;98323.00;5045297;28;20471;-96
2022/11/21 10:08:49;;;;;;;3.05;1.80;;;;;;;12.06;69.33;98345.47;5042444;28;20063;-92
2022/11/21 10:15:01;;;;;;;2.00;1.58;;;;;;;11.85;68.61;98356.66;5059092;28;20044;-94
2022/11/21 10:18:17;;;;;;;2.78;1.98;;;;;;;11.85;69.19;98350.44;5027662;28;20041;-96
2022/11/21 10:20:51;;;;;;;5.43;1.90;;;;;;;12.00;69.06;98346.69;4965283;28;20031;-96
2022/11/21 10:23:39;;;;;;;3.38;2.10;;;;;;;12.00;68.04;98358.28;5060325;28;20115;-95
2022/11/21 10:26:31;;;;;;;3.30;2.30;;;;;;;11.88;68.79;98320.19;5061536;28;20025;-96
2022/11/21 10:29:23;;;;;;;3.45;2.53;;;;;;;12.12;69.03;98345.06;5044319;28;20029;-96
2022/11/21 10:31:49;;;;;;;2.63;2.13;;;;;;;11.98;69.21;98335.41;5053123;28;20040;-94
2022/11/21 10:34:25;;;;;;;2.42;2.05;;;;;;;11.93;68.92;98337.09;5022065;28;20078;-91
2022/11/21 10:37:01;;;;;;;1.75;1.40;;;;;;;12.06;68.48;98342.78;5050709;28;20036;-94
2022/11/21 10:39:34;;;;;;;2.00;1.58;;;;;;;12.07;68.19;98339.75;5049759;28;20119;-95
2022/11/21 10:42:25;;;;;;;4.00;2.05;;;;;;;12.01;69.84;98345.56;5069771;28;20409;-94
2022/11/21 10:47:36;;;;;;;2.25;1.50;;;;;;;12.27;67.63;98362.81;5073397;28;20117;-92
2022/11/21 10:50:08;;;;;;;3.63;1.77;;;;;;;12.37;67.22;98369.06;5061535;28;20066;-95
2022/11/21 10:52:49;;;;;;;1.60;1.20;;;;;;;12.33;67.05;98374.28;5094481;28;20024;-94
2022/11/21 10:55:15;;;;;;;2.25;1.25;;;;;;;12.09;67.10;98353.75;5091961;28;20068;-93
2022/11/21 10:57:48;;;;;;;2.70;1.50;;;;;;;12.23;66.76;98371.81;5057577;28;20486;-93
2022/11/21 11:00:26;;;;;;;2.20;1.35;;;;;;;12.34;66.23;98371.25;5056803;28;20025;-89
2022/11/21 11:03:03;;;;;;;2.15;1.27;;;;;;;12.26;68.11;98360.41;5060971;28;20040;-90
2022/11/21 11:05:30;;;;;;;1.23;0.90;;;;;;;12.28;66.09;98363.59;5059621;28;20107;-92
2022/11/21 11:08:06;;;;;;;2.22;1.17;;;;;;;12.26;65.05;98368.50;5056181;28;20101;-93
2022/11/21 11:11:09;;;;;;;1.65;1.10;;;;;;;12.32;64.82;98389.66;5055125;28;20128;-92
2022/11/21 11:13:52;;;;;;;2.45;1.20;;;;;;;12.20;65.18;98367.00;5068419;28;20032;-91
2022/11/21 11:16:19;;;;;;;1.50;0.90;;;;;;;12.18;65.50;98385.41;5048828;28;20088;-91
2022/11/21 11:19:22;;;;;;;2.10;1.30;;;;;;;12.16;64.86;98399.22;5057556;28;20051;-96
2022/11/21 11:22:42;;;;;;;;;;;;;;;;;;;;;
2022/11/21 11:25:40;;;;;;;2.22;1.30;;;;;;;11.68;66.07;98357.28;5090748;28;20068;-96
2022/11/21 11:28:32;;;;;;;1.25;1.08;;;;;;;11.83;66.66;98379.63;5097167;28;20051;-96
2022/11/21 11:31:03;;;;;;;2.72;1.80;;;;;;;11.76;68.36;98390.03;5031782;28;20036;-96
2022/11/21 11:33:51;;;;;;;2.35;1.20;;;;;;;11.72;69.64;98406.00;5026449;28;20147;-95
2022/11/21 11:36:30;;;;;;;1.88;1.20;;;;;;;11.78;70.35;98380.53;5027982;28;20132;-95
2022/11/21 11:38:59;;;;;;;1.95;1.33;;;;;;;11.85;68.55;98380.94;4993311;28;20519;-94
2022/11/21 11:47:29;;;;;;;1.70;1.30;;;;;;;11.91;67.94;98384.34;5025319;28;20040;-95
2022/11/21 11:47:53;;;;;;;2.92;1.23;;;;;;;11.78;68.93;98364.34;5035802;28;20072;-92
2022/11/21 11:50:39;;;;;;;1.48;1.10;;;;;;;11.96;68.47;98367.28;5022366;28;20036;-92
2022/11/21 11:53:19;;;;;;;13.43;7.03;;;;;;;11.97;68.31;98366.16;5001637;28;20454;-95
2022/11/21 11:55:51;;;;;;;6.18;5.07;;;;;;;11.90;70.52;98375.47;5004379;28;20049;-94
2022/11/21 11:58:27;;;;;;;;;;;;;;;12.01;70.59;98391.44;5000179;28;20026;-96
2022/11/21 12:01:06;;;;;;;8.40;4.38;;;;;;;12.15;69.57;98389.53;4999331;28;20373;-96
2022/11/21 12:03:46;;;;;;;2.88;1.98;;;;;;;12.06;69.63;98396.75;5021482;28;20025;-96
2022/11/21 12:06:34;;;;;;;3.25;1.90;;;;;;;11.90;70.44;98370.06;5043034;28;20455;-94
2022/11/21 12:09:23;;;;;;;2.47;1.42;;;;;;;12.11;70.01;98367.72;5034150;28;20483;-95
2022/11/21 12:12:07;;;;;;;1.67;1.17;;;;;;;12.06;67.48;98362.47;5033070;28;20043;-96
2022/11/21 12:17:29;;;;;;;2.85;1.90;;;;;;;12.02;69.36;98374.97;5062962;23;20145;-95
2022/11/21 12:19:54;;;;;;;3.85;2.53;;;;;;;12.10;70.75;98376.16;4997247;28;20056;-94
2022/11/21 12:22:20;;;;;;;3.47;1.92;;;;;;;12.37;69.00;98402.28;4978327;28;20508;-94